Pagrindinis puslapis
METAR-TAF:

METAR-TAF

Oro uostai :

Lake Minchumina, Aliaska, Jungtinės Amerikos Valstijos

platuma: 63-52-50N, ilguma: 152-18-02W, Aukštis: 208 m

Dabartinis oras

Ataskaita buvo paskelbta 1 valandą ir 3 minutes, ne 09:56 UTC
Vėjas 3 kt nuo kintamojo kryptimis
Temperatūra -16°C
Drėgmė 60%
Slėgis 1009 hPa
Matomumas: 16.1 km
Giedras dangus

METAR: PAMH 260956Z AUTO VRB03KT 10SM CLR M16/M22 A2979 RMK AO2 SLP099 T11561222 FZRANO

Laikas: 01:59 (10:59 UTC)


TAF: trūkstamas

Orai ataskaitas ir orų prognozės (METAR, TAF).

turimą stotys yra geltonos ir raudonos taškus žemėlapyje.

Perkelti pele per norėdami pamatyti stoties vardą.

Tada spustelėkite, norėdami matyti oro stebėjimo ir prognozės.

Norėdami pakeisti žemėlapį: spustelėkite ant žalios mygtukų su juodo kryžiaus žemyn,; žalią mygtuką su brūkšneliu, jei norite nutolinti; arba žalių rodyklių gretimoms žemėlapius.


METAR-TAF: